Time;durP1;ratioP1;P1;durP2;ratioP2;P2;SDS_P1;SDS_P2;PMS_P1;PMS_P2;Temp;Humidity;BMP_temperature;BMP_pressure;BME280_temperature;BME280_humidity;BME280_pressure;Samples;Min_cycle;Max_cycle;Signal;HPM_P1;HPM_P2
2021/07/15 00:01:45;;;;;;;;;;;18.30;99.90;;;;;;5096322;28;19912;-83
2021/07/15 00:04:12;;;;;;;;;;;18.30;99.90;;;;;;5095962;28;19920;-83
2021/07/15 00:06:37;;;;;;;;;;;18.30;99.90;;;;;;5114867;28;19919;-83
2021/07/15 00:09:04;;;;;;;;;;;18.30;99.90;;;;;;5116328;28;19907;-83
2021/07/15 00:11:29;;;;;;;;;;;18.30;99.90;;;;;;5100290;28;19907;-84
2021/07/15 00:13:55;;;;;;;;;;;18.30;99.90;;;;;;5100490;28;19915;-83
2021/07/15 00:16:22;;;;;;;;;;;18.40;99.90;;;;;;5099958;28;19915;-83
2021/07/15 00:18:48;;;;;;;;;;;18.30;99.90;;;;;;5099541;28;20006;-84
2021/07/15 00:21:14;;;;;;;;;;;18.30;99.90;;;;;;5100124;28;19955;-83
2021/07/15 00:23:40;;;;;;;;;;;18.30;99.90;;;;;;5118322;28;19908;-83
2021/07/15 00:26:07;;;;;;;;;;;18.30;99.90;;;;;;5100589;28;19908;-83
2021/07/15 00:28:34;;;;;;;;;;;18.30;99.90;;;;;;5117946;28;19908;-84
2021/07/15 00:30:59;;;;;;;;;;;18.30;99.90;;;;;;5098858;28;19914;-83
2021/07/15 00:33:25;;;;;;;;;;;18.30;99.90;;;;;;5099591;28;19947;-83
2021/07/15 00:35:50;;;;;;;;;;;18.30;99.90;;;;;;5118038;28;19919;-83
2021/07/15 00:38:16;;;;;;;;;;;18.30;99.90;;;;;;5099445;28;20284;-83
2021/07/15 00:40:41;;;;;;;;;;;18.30;99.90;;;;;;5099170;28;19908;-84
2021/07/15 00:43:07;;;;;;;;;;;18.30;99.90;;;;;;5099165;28;19907;-84
2021/07/15 00:45:33;;;;;;;;;;;18.30;99.90;;;;;;5099787;28;19914;-83
2021/07/15 00:47:58;;;;;;;;;;;18.30;99.90;;;;;;5098939;28;19950;-83
2021/07/15 00:50:24;;;;;;;;;;;18.30;99.90;;;;;;5098642;28;19908;-84
2021/07/15 00:52:50;;;;;;;;;;;18.30;99.90;;;;;;5099133;28;19908;-84
2021/07/15 00:55:22;;;;;;;;;;;18.30;99.90;;;;;;5098292;28;19934;-84
2021/07/15 00:57:48;;;;;;;;;;;18.30;99.90;;;;;;5116311;28;19942;-83
2021/07/15 01:00:14;;;;;;;;;;;18.30;99.90;;;;;;5097636;28;19908;-84
2021/07/15 01:02:40;;;;;;;;;;;18.30;99.90;;;;;;5098082;28;20387;-83
2021/07/15 01:05:26;;;;;;;;;;;18.30;99.90;;;;;;5098597;28;19916;-84
2021/07/15 01:07:51;;;;;;;;;;;18.30;99.90;;;;;;5115622;28;19928;-83
2021/07/15 01:10:18;;;;;;;;;;;18.30;99.90;;;;;;5097862;28;19928;-84
2021/07/15 01:13:02;;;;;;;;;;;18.30;99.90;;;;;;5117200;28;19930;-83
2021/07/15 01:15:47;;;;;;;;;;;18.30;99.90;;;;;;5098939;28;19919;-83
2021/07/15 01:18:12;;;;;;;;;;;18.30;99.90;;;;;;5098291;28;19923;-85
2021/07/15 01:20:57;;;;;;;;;;;18.30;99.90;;;;;;5097847;28;19941;-83
2021/07/15 01:23:28;;;;;;;;;;;18.30;99.90;;;;;;5097878;28;19927;-84
2021/07/15 01:26:06;;;;;;;;;;;18.30;99.90;;;;;;5116959;28;19907;-83
2021/07/15 01:28:50;;;;;;;;;;;18.20;99.90;;;;;;5097724;28;19908;-83
2021/07/15 01:31:16;;;;;;;;;;;18.20;99.90;;;;;;5097750;28;19912;-83
2021/07/15 01:33:42;;;;;;;;;;;18.30;99.90;;;;;;5097664;28;20265;-83
2021/07/15 01:36:12;;;;;;;;;;;18.30;99.90;;;;;;5116473;28;19918;-83
2021/07/15 01:38:40;;;;;;;;;;;18.30;99.90;;;;;;5097518;28;19923;-83
2021/07/15 01:41:12;;;;;;;;;;;18.30;99.90;;;;;;5096996;28;19907;-84
2021/07/15 01:43:49;;;;;;;;;;;18.30;99.90;;;;;;5115849;28;20050;-83
2021/07/15 01:46:15;;;;;;;;;;;18.40;99.90;;;;;;5097942;28;20422;-84
2021/07/15 01:48:41;;;;;;;;;;;18.30;99.90;;;;;;5097178;28;20307;-83
2021/07/15 01:51:07;;;;;;;;;;;18.30;99.90;;;;;;5097002;28;19908;-84
2021/07/15 01:53:33;;;;;;;;;;;18.30;99.90;;;;;;5097405;28;19957;-83
2021/07/15 01:56:00;;;;;;;;;;;18.30;99.90;;;;;;5097194;28;20028;-83
2021/07/15 01:58:26;;;;;;;;;;;18.30;99.90;;;;;;5097362;28;19907;-84
2021/07/15 02:00:52;;;;;;;;;;;18.30;99.90;;;;;;5097181;28;20276;-84
2021/07/15 02:03:18;;;;;;;;;;;18.30;99.90;;;;;;5116206;28;19908;-84
2021/07/15 02:05:44;;;;;;;;;;;18.30;99.90;;;;;;5097490;28;19915;-83
2021/07/15 02:08:10;;;;;;;;;;;18.30;99.90;;;;;;5116542;28;19908;-83
2021/07/15 02:10:36;;;;;;;;;;;18.30;99.90;;;;;;5116298;28;19908;-83
2021/07/15 02:13:02;;;;;;;;;;;18.20;99.90;;;;;;5097057;28;19977;-84
2021/07/15 02:15:28;;;;;;;;;;;18.30;99.90;;;;;;5098216;28;19930;-83
2021/07/15 02:17:55;;;;;;;;;;;18.30;99.90;;;;;;5097560;28;20276;-84
2021/07/15 02:20:21;;;;;;;;;;;18.30;99.90;;;;;;5097239;28;20048;-83
2021/07/15 02:22:48;;;;;;;;;;;18.30;99.90;;;;;;5097279;28;20377;-83
2021/07/15 02:25:15;;;;;;;;;;;18.30;99.90;;;;;;5096222;28;20368;-84
2021/07/15 02:27:42;;;;;;;;;;;18.20;99.90;;;;;;5115100;28;19918;-83
2021/07/15 02:30:09;;;;;;;;;;;18.30;99.90;;;;;;5097151;28;19957;-83
2021/07/15 02:32:35;;;;;;;;;;;18.30;99.90;;;;;;5096905;28;19922;-83
2021/07/15 02:35:06;;;;;;;;;;;18.30;99.90;;;;;;5097461;28;20341;-84
2021/07/15 02:37:36;;;;;;;;;;;18.30;99.90;;;;;;5097878;28;19979;-83
2021/07/15 02:40:06;;;;;;;;;;;18.30;99.90;;;;;;5096184;28;19908;-83
2021/07/15 02:42:31;;;;;;;;;;;18.30;99.90;;;;;;5096919;28;19908;-83
2021/07/15 02:44:57;;;;;;;;;;;18.30;99.90;;;;;;5096675;28;19930;-83
2021/07/15 02:47:22;;;;;;;;;;;18.30;99.90;;;;;;5096182;28;20336;-83
2021/07/15 02:49:48;;;;;;;;;;;18.30;99.90;;;;;;5096569;28;20114;-83
2021/07/15 02:52:16;;;;;;;;;;;18.30;99.90;;;;;;5097945;28;19912;-84
2021/07/15 02:54:42;;;;;;;;;;;18.30;99.90;;;;;;5116171;28;19914;-84
2021/07/15 02:57:09;;;;;;;;;;;18.30;99.90;;;;;;5115869;28;19934;-83
2021/07/15 02:59:46;;;;;;;;;;;18.30;99.90;;;;;;5098056;28;20003;-84
2021/07/15 03:02:24;;;;;;;;;;;18.30;99.90;;;;;;5098239;28;19911;-83
2021/07/15 03:04:56;;;;;;;;;;;18.40;99.90;;;;;;5098210;28;20010;-83
2021/07/15 03:07:22;;;;;;;;;;;18.30;99.90;;;;;;5115450;28;19962;-83
2021/07/15 03:09:50;;;;;;;;;;;18.30;99.90;;;;;;5097216;28;19908;-83
2021/07/15 03:12:18;;;;;;;;;;;18.30;99.90;;;;;;5115471;28;19986;-83
2021/07/15 03:14:45;;;;;;;;;;;18.30;99.90;;;;;;5097303;28;20340;-83
2021/07/15 03:17:13;;;;;;;;;;;18.30;99.90;;;;;;5097315;28;19950;-83
2021/07/15 03:19:41;;;;;;;;;;;18.30;99.90;;;;;;5097136;28;19908;-85
2021/07/15 03:22:07;;;;;;;;;;;18.30;99.90;;;;;;5078212;28;19931;-85
2021/07/15 03:24:34;;;;;;;;;;;18.30;99.90;;;;;;5056914;28;20288;-83
2021/07/15 03:27:03;;;;;;;;;;;18.30;99.90;;;;;;5078920;28;19909;-84
2021/07/15 03:29:29;;;;;;;;;;;18.30;99.90;;;;;;5071414;28;19958;-83
2021/07/15 03:31:55;;;;;;;;;;;18.20;99.90;;;;;;5087332;28;19912;-83
2021/07/15 03:34:22;;;;;;;;;;;18.20;99.90;;;;;;5054289;28;19974;-82
2021/07/15 05:51:13;;;;;;;5.70;3.60;;;18.50;99.90;;;;;;5137139;27;20204;-87
2021/07/15 05:53:39;;;;;;;5.55;3.70;;;18.50;99.90;;;;;;5088007;28;20059;-87
2021/07/15 05:56:05;;;;;;;;;;;18.50;99.90;;;;;;5094701;28;20024;-85
2021/07/15 05:58:30;;;;;;;;;;;18.40;99.90;;;;;;5092277;28;19938;-86
2021/07/15 06:00:56;;;;;;;;;;;18.50;99.90;;;;;;5091297;28;19904;-85
2021/07/15 06:03:21;;;;;;;;;;;18.50;99.90;;;;;;5090856;28;19908;-83
2021/07/15 06:05:47;;;;;;;;;;;18.60;99.90;;;;;;5095128;28;19904;-83
2021/07/15 06:08:12;;;;;;;;;;;18.60;99.90;;;;;;5091637;28;19953;-88
2021/07/15 06:10:38;;;;;;;6.85;3.70;;;18.60;99.90;;;;;;5086053;28;19909;-87
2021/07/15 06:13:04;;;;;;;;;;;18.60;99.90;;;;;;5094354;28;19927;-86
2021/07/15 06:15:29;;;;;;;;;;;18.70;99.90;;;;;;5101788;28;19935;-84
2021/07/15 06:17:58;;;;;;;;;;;18.70;99.90;;;;;;5106818;28;19900;-86
2021/07/15 06:20:24;;;;;;;;;;;18.70;99.90;;;;;;5109498;28;19958;-85
2021/07/15 06:22:49;;;;;;;;;;;18.70;99.90;;;;;;5110432;28;19959;-85
2021/07/15 06:25:15;;;;;;;;;;;18.70;99.90;;;;;;5111805;28;19979;-85
2021/07/15 06:27:41;;;;;;;;;;;18.70;99.90;;;;;;5101997;28;19909;-87
2021/07/15 06:30:08;;;;;;;;;;;18.70;99.90;;;;;;5097290;28;20014;-88
2021/07/15 06:32:33;;;;;;;;;;;18.70;99.90;;;;;;5090393;28;19908;-83
2021/07/15 06:34:59;;;;;;;;;;;18.70;99.90;;;;;;5090238;28;20306;-85
2021/07/15 06:37:35;;;;;;;;;;;18.70;99.90;;;;;;5092434;28;19908;-86
2021/07/15 06:40:03;;;;;;;;;;;18.70;99.90;;;;;;5096361;28;19908;-86
2021/07/15 06:42:28;;;;;;;;;;;18.70;99.90;;;;;;5096202;28;19944;-86
2021/07/15 06:44:54;;;;;;;;;;;18.60;99.90;;;;;;5096399;28;19912;-86
2021/07/15 06:47:19;;;;;;;;;;;18.60;99.90;;;;;;5095301;28;19963;-86
2021/07/15 06:49:45;;;;;;;;;;;18.60;99.90;;;;;;5093811;28;19942;-86
2021/07/15 06:52:10;;;;;;;;;;;18.60;99.90;;;;;;5095300;28;19908;-86
2021/07/15 06:54:36;;;;;;;;;;;18.70;99.90;;;;;;5095350;28;19915;-86
2021/07/15 06:57:01;;;;;;;;;;;18.70;99.90;;;;;;5094818;28;19919;-86
2021/07/15 06:59:27;;;;;;;;;;;18.70;99.90;;;;;;5094454;28;19905;-87
2021/07/15 07:01:52;;;;;;;;;;;18.70;99.90;;;;;;5085234;28;20354;-86
2021/07/15 07:04:18;;;;;;;;;;;18.60;99.90;;;;;;5076374;28;20001;-85
2021/07/15 07:06:43;;;;;;;;;;;18.60;99.90;;;;;;5079866;28;19904;-84
2021/07/15 07:09:09;;;;;;;;;;;18.50;99.90;;;;;;5076274;28;20058;-84
2021/07/15 07:11:34;;;;;;;;;;;18.50;99.90;;;;;;5079102;28;19948;-85
2021/07/15 07:14:00;;;;;;;;;;;18.50;99.90;;;;;;5077453;28;19966;-85
2021/07/15 07:16:26;;;;;;;;;;;18.50;99.90;;;;;;5074887;28;20360;-85
2021/07/15 07:18:51;;;;;;;;;;;18.50;99.90;;;;;;5072051;28;19905;-84
2021/07/15 07:21:17;;;;;;;;;;;18.60;99.90;;;;;;5071767;28;19942;-84
2021/07/15 07:23:42;;;;;;;;;;;18.60;99.90;;;;;;5073163;28;19904;-84
2021/07/15 07:26:08;;;;;;;;;;;18.60;99.90;;;;;;5071910;28;19908;-87
2021/07/15 07:28:33;;;;;;;;;;;18.60;99.90;;;;;;5071169;28;19904;-86
2021/07/15 07:30:59;;;;;;;;;;;18.70;99.90;;;;;;5069709;28;19908;-88
2021/07/15 07:33:24;;;;;;;;;;;18.80;99.90;;;;;;5069981;28;19939;-85
2021/07/15 07:35:50;;;;;;;;;;;18.70;99.90;;;;;;5071511;28;20508;-88
2021/07/15 07:38:15;;;;;;;;;;;18.90;99.90;;;;;;5071335;28;19931;-88
2021/07/15 07:40:41;;;;;;;;;;;18.90;99.90;;;;;;5072424;28;19905;-86
2021/07/15 07:43:06;;;;;;;;;;;19.00;99.90;;;;;;5071936;28;19904;-87
2021/07/15 07:45:32;;;;;;;;;;;19.00;99.90;;;;;;5082345;28;19931;-86
2021/07/15 07:48:00;;;;;;;;;;;19.00;99.90;;;;;;5098485;28;19949;-84
2021/07/15 07:50:26;;;;;;;;;;;19.20;99.90;;;;;;5094015;28;19916;-85
2021/07/15 07:52:51;;;;;;;;;;;19.30;99.90;;;;;;5094025;28;19927;-84
2021/07/15 07:55:17;;;;;;;;;;;19.40;99.90;;;;;;5094385;28;19911;-85
2021/07/15 07:57:43;;;;;;;;;;;19.40;99.90;;;;;;5094993;28;19915;-85
2021/07/15 08:00:13;;;;;;;;;;;19.50;99.90;;;;;;5093346;28;19904;-85
2021/07/15 08:02:40;;;;;;;;;;;19.60;99.90;;;;;;5084797;28;20401;-83
2021/07/15 08:05:06;;;;;;;;;;;19.60;99.90;;;;;;5082382;28;19988;-84
2021/07/15 08:07:32;;;;;;;;;;;19.60;99.90;;;;;;5082955;28;19972;-85
2021/07/15 08:09:58;;;;;;;;;;;19.70;99.90;;;;;;5084528;28;20168;-85
2021/07/15 08:12:24;;;;;;;;;;;19.70;99.90;;;;;;5085912;28;19904;-84
2021/07/15 08:14:49;;;;;;;;;;;19.70;99.90;;;;;;5080902;28;20284;-83
2021/07/15 08:17:15;;;;;;;;;;;19.70;99.90;;;;;;5073371;28;20377;-83
2021/07/15 08:19:40;;;;;;;;;;;19.70;99.90;;;;;;5071321;28;19909;-83
2021/07/15 08:22:06;;;;;;;;;;;19.80;99.90;;;;;;5070825;28;19905;-83
2021/07/15 08:24:32;;;;;;;;;;;19.80;99.90;;;;;;5079017;28;20007;-83
2021/07/15 08:26:58;;;;;;;;;;;19.80;99.90;;;;;;5085172;28;19913;-84
2021/07/15 08:29:23;;;;;;;;;;;19.80;99.90;;;;;;5083588;28;19976;-84
2021/07/15 08:31:49;;;;;;;;;;;19.80;99.90;;;;;;5085328;28;19904;-86
2021/07/15 08:34:15;;;;;;;;;;;20.00;99.90;;;;;;5089813;28;19908;-84
2021/07/15 08:36:40;;;;;;;;;;;20.00;99.90;;;;;;5108727;28;19904;-84
2021/07/15 08:39:09;;;;;;;;;;;20.00;99.90;;;;;;5105486;28;19904;-84
2021/07/15 08:41:35;;;;;;;;;;;20.10;99.90;;;;;;5104911;28;19908;-85
2021/07/15 08:44:02;;;;;;;;;;;20.10;99.90;;;;;;5106015;28;19904;-85
2021/07/15 08:46:27;;;;;;;;;;;20.10;99.90;;;;;;5104173;28;19924;-84
2021/07/15 08:48:53;;;;;;;;;;;20.20;99.90;;;;;;5098695;28;19923;-84
2021/07/15 08:51:19;;;;;;;;;;;20.20;99.90;;;;;;5099358;28;19904;-83
2021/07/15 08:53:45;;;;;;;;;;;20.20;99.90;;;;;;5095683;28;19933;-84
2021/07/15 08:58:56;;;;;;;;;;;20.30;99.90;;;;;;5096775;28;20023;-83
2021/07/15 09:01:21;;;;;;;;;;;20.30;99.90;;;;;;5093714;28;19979;-84
2021/07/15 09:03:47;;;;;;;;;;;20.30;99.90;;;;;;5093570;28;19904;-83
2021/07/15 09:06:13;;;;;;;;;;;20.30;99.90;;;;;;5091974;28;19904;-83
2021/07/15 09:08:38;;;;;;;;;;;20.40;99.90;;;;;;5091122;28;19908;-83
2021/07/15 09:11:04;;;;;;;;;;;20.30;99.90;;;;;;5092320;28;19908;-84
2021/07/15 09:13:29;;;;;;;;;;;20.30;99.90;;;;;;5091410;28;20045;-84
2021/07/15 09:15:55;;;;;;;;;;;20.40;99.90;;;;;;5094663;28;20376;-85
2021/07/15 09:18:20;;;;;;;;;;;20.40;99.90;;;;;;5093745;28;19907;-84
2021/07/15 09:20:46;;;;;;;;;;;20.50;99.90;;;;;;5093314;28;19904;-84
2021/07/15 09:23:12;;;;;;;;;;;20.70;99.90;;;;;;5093821;28;20243;-84
2021/07/15 09:25:38;;;;;;;;;;;20.80;99.90;;;;;;5094965;28;19904;-84
2021/07/15 09:28:05;;;;;;;;;;;20.90;99.90;;;;;;5096095;28;19925;-83
2021/07/15 09:30:30;;;;;;;;;;;20.90;99.90;;;;;;5095866;28;19958;-83
2021/07/15 09:32:57;;;;;;;;;;;21.00;99.90;;;;;;5094916;28;19904;-83
2021/07/15 09:35:39;;;;;;;;;;;21.00;99.90;;;;;;5095654;28;19904;-83
2021/07/15 09:38:12;;;;;;;;;;;21.00;99.90;;;;;;5096036;28;19983;-84
2021/07/15 09:40:44;;;;;;;;;;;21.00;99.90;;;;;;5095490;28;19908;-85
2021/07/15 09:43:16;;;;;;;;;;;21.00;99.90;;;;;;5093671;28;20054;-83
2021/07/15 09:45:45;;;;;;;;;;;21.00;99.90;;;;;;5092399;28;20003;-83
2021/07/15 09:48:14;;;;;;;;;;;21.10;99.90;;;;;;5093341;28;19904;-84
2021/07/15 09:50:39;;;;;;;;;;;21.20;99.90;;;;;;5093482;28;20322;-82
2021/07/15 09:53:22;;;;;;;;;;;21.30;99.90;;;;;;5093576;28;20022;-83
2021/07/15 09:55:55;;;;;;;;;;;21.30;99.90;;;;;;5092236;28;20309;-83
2021/07/15 09:58:21;;;;;;;;;;;21.40;99.90;;;;;;5092950;28;19908;-84
2021/07/15 10:00:47;;;;;;;;;;;21.40;99.90;;;;;;5092880;28;19957;-84
2021/07/15 10:03:13;;;;;;;;;;;21.30;99.90;;;;;;5091953;28;20015;-84
2021/07/15 10:05:48;;;;;;;;;;;21.30;99.90;;;;;;5091805;28;19908;-82
2021/07/15 10:08:20;;;;;;;;;;;21.30;99.90;;;;;;5091763;28;20257;-83
2021/07/15 10:10:45;;;;;;;;;;;21.30;99.90;;;;;;5092671;28;20222;-84
2021/07/15 10:13:18;;;;;;;;;;;21.30;99.90;;;;;;5092503;28;19957;-84
2021/07/15 10:15:44;;;;;;;;;;;21.40;99.90;;;;;;5091769;28;20412;-83
2021/07/15 10:18:09;;;;;;;;;;;21.50;99.90;;;;;;5091703;28;19911;-83
2021/07/15 10:20:35;;;;;;;;;;;21.50;99.90;;;;;;5091186;28;19908;-83
2021/07/15 10:23:01;;;;;;;;;;;21.50;99.90;;;;;;5093097;28;20479;-83
2021/07/15 10:25:27;;;;;;;;;;;21.50;99.90;;;;;;5090941;28;19949;-83
2021/07/15 10:27:52;;;;;;;;;;;21.40;99.90;;;;;;5091277;28;19904;-83
2021/07/15 10:30:18;;;;;;;;;;;21.40;99.90;;;;;;5088436;28;19908;-84
2021/07/15 10:32:43;;;;;;;;;;;21.30;99.90;;;;;;5089335;28;20264;-84
2021/07/15 10:35:12;;;;;;;;;;;21.30;99.90;;;;;;5089568;28;20264;-85
2021/07/15 10:37:39;;;;;;;;;;;21.30;99.90;;;;;;5092352;28;20042;-84
2021/07/15 10:40:07;;;;;;;;;;;21.20;99.90;;;;;;5092734;28;19953;-85
2021/07/15 10:42:33;;;;;;;;;;;21.20;99.90;;;;;;5094450;28;19904;-84
2021/07/15 10:44:59;;;;;;;;;;;21.20;99.90;;;;;;5094611;28;20432;-84
2021/07/15 10:47:26;;;;;;;;;;;21.20;99.90;;;;;;5093193;28;19911;-84
2021/07/15 10:49:55;;;;;;;;;;;21.30;99.90;;;;;;5092318;28;19965;-84
2021/07/15 10:52:21;;;;;;;;;;;21.30;99.90;;;;;;5092587;28;19923;-83
2021/07/15 10:54:47;;;;;;;;;;;21.40;99.90;;;;;;5093985;28;20261;-83
2021/07/15 10:57:13;;;;;;;;;;;21.40;99.90;;;;;;5096389;28;19911;-83
2021/07/15 10:59:38;;;;;;;;;;;21.50;99.90;;;;;;5095033;28;19904;-84
2021/07/15 11:02:18;;;;;;;;;;;21.50;99.90;;;;;;5091728;28;19911;-84
2021/07/15 11:04:43;;;;;;;;;;;21.50;99.90;;;;;;5077355;28;19904;-83
2021/07/15 11:07:31;;;;;;;;;;;21.50;99.90;;;;;;5078244;28;19908;-83
2021/07/15 11:10:17;;;;;;;;;;;21.40;99.90;;;;;;5077831;28;19912;-84
2021/07/15 11:12:53;;;;;;;;;;;21.40;99.90;;;;;;5076668;28;20001;-83
2021/07/15 11:15:19;;;;;;;;;;;21.30;99.90;;;;;;5076990;28;19904;-83
2021/07/15 11:17:46;;;;;;;;;;;21.30;99.90;;;;;;5075826;28;19912;-83
2021/07/15 11:20:13;;;;;;;;;;;21.30;99.90;;;;;;5075451;28;19931;-84
2021/07/15 11:22:38;;;;;;;;;;;21.20;99.90;;;;;;5076406;28;19904;-84
2021/07/15 11:25:05;;;;;;;;;;;21.10;99.90;;;;;;5074546;28;20007;-86
2021/07/15 11:27:32;;;;;;;;;;;21.10;99.90;;;;;;5076697;28;19951;-83
2021/07/15 11:29:57;;;;;;;;;;;21.10;99.90;;;;;;5073470;28;19915;-82
2021/07/15 11:32:25;;;;;;;;;;;21.10;99.90;;;;;;5076591;28;19905;-83
2021/07/15 11:34:53;;;;;;;;;;;21.00;99.90;;;;;;5077018;28;19985;-82
2021/07/15 11:37:25;;;;;;;;;;;21.00;99.90;;;;;;5076568;28;19970;-81
2021/07/15 11:39:54;;;;;;;;;;;21.00;99.90;;;;;;5076101;28;19915;-82
2021/07/15 11:42:21;;;;;;;;;;;21.00;99.90;;;;;;5084796;28;19904;-82
2021/07/15 11:45:06;;;;;;;;;;;21.00;99.90;;;;;;5097833;28;19907;-82
2021/07/15 11:47:46;;;;;;;;;;;20.90;99.90;;;;;;5096695;28;19955;-82
2021/07/15 11:50:27;;;;;;;;;;;20.90;99.90;;;;;;5096302;28;20345;-83
2021/07/15 11:53:11;;;;;;;;;;;20.90;99.90;;;;;;5097324;28;19904;-82
2021/07/15 11:55:36;;;;;;;;;;;20.90;99.90;;;;;;5097123;28;19926;-81
2021/07/15 11:58:02;;;;;;;;;;;20.90;99.90;;;;;;5096339;28;19913;-83
2021/07/15 12:00:28;;;;;;;;;;;20.90;99.90;;;;;;5097319;28;19904;-83
2021/07/15 12:02:57;;;;;;;;;;;20.90;99.90;;;;;;5093778;28;20347;-83
2021/07/15 12:05:28;;;;;;;;;;;21.00;99.90;;;;;;5096436;28;19904;-82
2021/07/15 12:08:13;;;;;;;;;;;21.00;99.90;;;;;;5096962;28;19904;-82
2021/07/15 12:10:41;;;;;;;;;;;21.00;99.90;;;;;;5096549;28;20257;-83
2021/07/15 12:13:07;;;;;;;;;;;21.10;99.90;;;;;;5096274;28;20352;-82
2021/07/15 12:15:35;;;;;;;;;;;21.20;99.90;;;;;;5096244;28;20029;-82
2021/07/15 12:18:01;;;;;;;;;;;21.30;99.90;;;;;;5075791;28;19995;-81
2021/07/15 12:20:36;;;;;;;;;;;21.40;99.90;;;;;;5076343;28;19911;-82
2021/07/15 12:23:02;;;;;;;;;;;21.50;99.90;;;;;;5079822;28;19905;-83
2021/07/15 12:25:29;;;;;;;;;;;21.60;99.90;;;;;;5080347;28;19911;-83
2021/07/15 12:27:56;;;;;;;;;;;21.70;99.90;;;;;;5079437;28;19995;-83
2021/07/15 12:30:36;;;;;;;;;;;21.80;99.90;;;;;;5080269;28;20365;-84
2021/07/15 12:33:02;;;;;;;;;;;21.90;99.90;;;;;;5080743;28;19909;-83
2021/07/15 12:35:29;;;;;;;;;;;21.90;99.90;;;;;;5080967;28;20401;-83
2021/07/15 12:37:55;;;;;;;;;;;22.00;99.90;;;;;;5080850;28;19911;-83
2021/07/15 12:40:28;;;;;;;;;;;22.10;99.90;;;;;;5079100;28;20018;-83
2021/07/15 12:43:09;;;;;;;;;;;22.30;99.90;;;;;;5090955;28;19911;-83
2021/07/15 12:45:35;;;;;;;;;;;22.40;99.90;;;;;;5101883;28;20010;-84
2021/07/15 12:48:01;;;;;;;;;;;22.40;99.90;;;;;;5103147;28;19908;-83
2021/07/15 12:50:27;;;;;;;;;;;22.50;99.90;;;;;;5100847;28;19912;-84
2021/07/15 12:53:13;;;;;;;;;;;22.60;99.90;;;;;;5101437;28;19904;-84
2021/07/15 12:55:39;;;;;;;;;;;22.70;99.90;;;;;;5103777;28;19939;-84
2021/07/15 12:58:05;;;;;;;;;;;22.70;99.90;;;;;;5104331;28;20525;-84
2021/07/15 13:00:31;;;;;;;;;;;22.70;99.90;;;;;;5101843;28;19915;-84
2021/07/15 13:02:57;;;;;;;;;;;22.70;99.90;;;;;;5104327;28;19908;-84
2021/07/15 13:05:23;;;;;;;;;;;22.70;99.90;;;;;;5102510;28;19951;-84
2021/07/15 13:07:49;;;;;;;;;;;22.70;99.90;;;;;;5104933;28;19903;-84
2021/07/15 13:15:33;;;;;;;;;;;22.50;99.90;;;;;;5104985;28;19915;-85
2021/07/15 13:18:07;;;;;;;;;;;22.30;99.90;;;;;;5103889;28;19904;-85
2021/07/15 13:20:39;;;;;;;;;;;22.20;99.90;;;;;;5099462;28;20421;-84
2021/07/15 13:23:05;;;;;;;;;;;22.10;99.90;;;;;;5099429;28;19965;-83
2021/07/15 13:25:31;;;;;;;;;;;22.00;99.90;;;;;;5100527;28;19904;-84
2021/07/15 13:28:04;;;;;;;;;;;22.00;99.90;;;;;;5100326;28;19975;-84
2021/07/15 13:30:29;;;;;;;;;;;21.90;99.90;;;;;;5100181;28;19912;-84
2021/07/15 13:32:55;;;;;;;;;;;21.90;99.90;;;;;;5100457;28;19908;-84
2021/07/15 13:35:22;;;;;;;;;;;21.80;99.90;;;;;;5099844;28;19903;-83
2021/07/15 13:37:48;;;;;;;;;;;21.80;99.90;;;;;;5100963;28;20027;-84
2021/07/15 13:40:20;;;;;;;;;;;21.80;99.90;;;;;;5098968;28;20399;-84
2021/07/15 13:42:45;;;;;;;;;;;21.80;99.90;;;;;;5101521;28;19946;-84
2021/07/15 13:45:12;;;;;;;;;;;21.80;99.90;;;;;;5099802;28;20376;-84
2021/07/15 13:47:46;;;;;;;;;;;21.70;99.90;;;;;;5092586;28;19904;-82
2021/07/15 13:50:18;;;;;;;;;;;21.60;99.90;;;;;;5090946;28;19912;-82
2021/07/15 13:52:44;;;;;;;;;;;21.60;99.90;;;;;;5089879;28;19904;-82
2021/07/15 13:55:10;;;;;;;;;;;21.60;99.90;;;;;;5091245;28;19958;-83
2021/07/15 13:57:37;;;;;;;;;;;21.60;99.90;;;;;;5091116;28;20418;-82
2021/07/15 14:00:10;;;;;;;;;;;21.60;99.90;;;;;;5089493;28;19943;-82
2021/07/15 14:02:36;;;;;;;;;;;21.70;99.90;;;;;;5089940;28;19908;-82
2021/07/15 14:05:01;;;;;;;;;;;21.70;99.90;;;;;;5091547;28;19915;-85
2021/07/15 14:07:29;;;;;;;;;;;21.80;99.90;;;;;;5078118;28;19904;-84
2021/07/15 14:10:04;;;;;;;;;;;21.80;99.90;;;;;;5078107;28;19905;-84
2021/07/15 14:12:29;;;;;;;;;;;21.80;99.90;;;;;;5083143;28;19992;-84
2021/07/15 14:14:55;;;;;;;;;;;21.80;99.90;;;;;;5083425;28;19908;-85
2021/07/15 14:17:21;;;;;;;;;;;21.90;99.90;;;;;;5084863;28;20326;-84
2021/07/15 14:19:47;;;;;;;;;;;21.90;99.90;;;;;;5084937;28;19931;-84
2021/07/15 14:22:13;;;;;;;;;;;21.90;99.90;;;;;;5084081;28;19904;-84
2021/07/15 14:24:38;;;;;;;;;;;22.00;99.90;;;;;;5079585;28;19904;-83
2021/07/15 14:27:04;;;;;;;;;;;22.00;99.90;;;;;;5078894;28;19904;-83
2021/07/15 14:29:29;;;;;;;;;;;22.00;99.90;;;;;;5077557;28;19905;-83
2021/07/15 14:31:55;;;;;;;;;;;22.20;99.90;;;;;;5076936;28;20411;-84
2021/07/15 14:34:21;;;;;;;;;;;22.30;99.90;;;;;;5082083;28;19946;-84
2021/07/15 14:36:46;;;;;;;;;;;22.40;99.90;;;;;;5085089;28;19904;-84
2021/07/15 14:39:12;;;;;;;;;;;22.40;99.90;;;;;;5081452;28;19919;-83
2021/07/15 14:41:38;;;;;;;;;;;22.30;99.90;;;;;;5076899;28;19910;-82
2021/07/15 14:44:04;;;;;;;;;;;22.20;99.90;;;;;;5077785;28;19911;-83
2021/07/15 14:46:29;;;;;;;;;;;22.20;99.90;;;;;;5078245;28;19960;-83
2021/07/15 14:48:56;;;;;;;;;;;22.20;99.90;;;;;;5078055;28;20308;-82
2021/07/15 14:51:21;;;;;;;;;;;22.10;99.90;;;;;;5077231;28;19908;-84
2021/07/15 17:10:31;;;;;;;22.60;15.13;;;20.40;99.90;;;;;;5109538;27;20119;-85
2021/07/15 17:12:56;;;;;;;21.10;15.05;;;20.30;99.90;;;;;;5107286;28;20052;-86
2021/07/15 17:15:22;;;;;;;18.33;13.95;;;20.30;99.90;;;;;;5108875;28;20048;-86
2021/07/15 17:17:47;;;;;;;18.77;13.70;;;20.30;99.90;;;;;;5107226;28;20422;-86
2021/07/15 17:20:13;;;;;;;19.85;13.93;;;20.40;99.90;;;;;;5106733;28;20503;-86
2021/07/15 17:22:39;;;;;;;19.77;14.52;;;20.40;99.90;;;;;;5107205;28;20131;-83
2021/07/15 17:25:05;;;;;;;23.05;14.57;;;20.40;99.90;;;;;;5107090;28;20103;-83
2021/07/15 17:27:31;;;;;;;29.23;15.73;;;20.40;99.90;;;;;;5106667;28;20107;-83
2021/07/15 17:29:56;;;;;;;19.25;15.07;;;20.50;99.90;;;;;;5106332;28;20405;-86
2021/07/15 17:32:22;;;;;;;21.40;16.00;;;20.50;99.90;;;;;;5107598;28;20066;-85
2021/07/15 17:34:48;;;;;;;19.90;15.25;;;20.40;99.90;;;;;;5114873;28;20016;-85
2021/07/15 17:37:13;;;;;;;22.48;15.90;;;20.40;99.90;;;;;;5112460;28;20024;-85
2021/07/15 17:39:39;;;;;;;23.33;15.70;;;20.40;99.90;;;;;;5112416;28;20728;-85
2021/07/15 17:42:05;;;;;;;19.25;14.68;;;20.40;99.90;;;;;;5113191;28;20718;-85
2021/07/15 17:44:30;;;;;;;25.73;16.00;;;20.40;99.90;;;;;;5112348;28;20438;-85
2021/07/15 17:46:58;;;;;;;26.08;17.65;;;20.50;99.90;;;;;;5111340;28;20031;-85
2021/07/15 17:49:25;;;;;;;25.83;17.75;;;20.50;99.90;;;;;;5109903;28;20109;-86
2021/07/15 17:51:51;;;;;;;25.75;17.70;;;20.40;99.90;;;;;;5110249;28;20046;-85
2021/07/15 17:54:17;;;;;;;25.13;17.77;;;20.40;99.90;;;;;;5110557;28;20038;-85
2021/07/15 17:56:43;;;;;;;26.52;16.67;;;20.40;99.90;;;;;;5112911;28;20085;-85
2021/07/15 17:59:09;;;;;;;25.98;18.20;;;20.30;99.90;;;;;;5110631;28;20493;-85
2021/07/15 18:01:35;;;;;;;26.17;18.17;;;20.30;99.90;;;;;;5108998;28;20096;-85
2021/07/15 18:04:03;;;;;;;26.25;19.50;;;20.30;99.90;;;;;;5110131;28;20066;-85
2021/07/15 18:06:29;;;;;;;32.10;20.15;;;20.30;99.90;;;;;;5110678;28;20092;-84
2021/07/15 18:08:55;;;;;;;29.70;20.73;;;20.30;99.90;;;;;;5111082;28;20032;-86
2021/07/15 18:11:23;;;;;;;31.63;19.85;;;20.20;99.90;;;;;;5109737;28;20032;-85
2021/07/15 18:13:48;;;;;;;32.63;22.15;;;20.20;99.90;;;;;;5103039;28;20023;-84
2021/07/15 18:16:14;;;;;;;35.10;22.52;;;20.30;99.90;;;;;;5112179;28;20020;-85
2021/07/15 18:18:40;;;;;;;32.70;21.75;;;20.20;99.90;;;;;;5119709;28;20106;-85
2021/07/15 18:21:06;;;;;;;33.05;22.30;;;20.20;99.90;;;;;;5102222;28;20035;-84
2021/07/15 18:23:32;;;;;;;40.15;25.25;;;20.30;99.90;;;;;;5097759;28;20123;-85
2021/07/15 18:25:59;;;;;;;37.17;23.58;;;20.20;99.90;;;;;;5098899;28;20059;-85
2021/07/15 18:28:25;;;;;;;38.85;24.83;;;20.20;99.90;;;;;;5096576;28;20089;-84
2021/07/15 18:30:51;;;;;;;35.00;24.45;;;20.20;99.90;;;;;;5097758;28;20024;-85
2021/07/15 18:33:16;;;;;;;33.20;23.75;;;20.10;99.90;;;;;;5096089;28;20533;-84
2021/07/15 18:35:42;;;;;;;37.45;24.48;;;20.00;99.90;;;;;;5095948;28;20021;-86
2021/07/15 18:38:08;;;;;;;38.70;23.50;;;20.00;99.90;;;;;;5094313;28;20115;-84
2021/07/15 18:40:34;;;;;;;41.33;24.42;;;20.00;99.90;;;;;;5097964;28;20048;-83
2021/07/15 18:43:01;;;;;;;41.05;24.90;;;20.00;99.90;;;;;;5098992;28;20024;-83